sensor_id;sensor_type;location;lat;lon;timestamp;P1;durP1;ratioP1;P2;durP2;ratioP2
9445;SDS011;4761;49.490;10.908;2024-03-02T00:01:07;12.23;;;10.93;;
9445;SDS011;4761;49.490;10.908;2024-03-02T00:03:35;13.02;;;11.60;;
9445;SDS011;4761;49.490;10.908;2024-03-02T00:06:02;12.03;;;10.73;;
9445;SDS011;4761;49.490;10.908;2024-03-02T00:08:27;13.23;;;11.10;;
9445;SDS011;4761;49.490;10.908;2024-03-02T00:10:57;12.47;;;10.77;;
9445;SDS011;4761;49.490;10.908;2024-03-02T00:13:24;13.50;;;11.23;;
9445;SDS011;4761;49.490;10.908;2024-03-02T00:15:53;11.87;;;10.67;;
9445;SDS011;4761;49.490;10.908;2024-03-02T00:18:27;12.33;;;10.53;;
9445;SDS011;4761;49.490;10.908;2024-03-02T00:20:56;13.13;;;10.83;;
9445;SDS011;4761;49.490;10.908;2024-03-02T00:23:22;13.10;;;11.20;;
9445;SDS011;4761;49.490;10.908;2024-03-02T00:25:53;12.90;;;11.50;;
9445;SDS011;4761;49.490;10.908;2024-03-02T00:30:58;11.30;;;10.10;;
9445;SDS011;4761;49.490;10.908;2024-03-02T00:33:42;13.30;;;10.73;;
9445;SDS011;4761;49.490;10.908;2024-03-02T00:36:09;12.57;;;10.53;;
9445;SDS011;4761;49.490;10.908;2024-03-02T00:38:45;12.93;;;11.20;;
9445;SDS011;4761;49.490;10.908;2024-03-02T00:46:26;12.03;;;10.83;;
9445;SDS011;4761;49.490;10.908;2024-03-02T00:48:56;11.70;;;10.50;;
9445;SDS011;4761;49.490;10.908;2024-03-02T00:51:24;11.67;;;10.47;;
9445;SDS011;4761;49.490;10.908;2024-03-02T00:53:55;12.27;;;10.13;;
9445;SDS011;4761;49.490;10.908;2024-03-02T00:56:23;12.03;;;10.73;;
9445;SDS011;4761;49.490;10.908;2024-03-02T00:58:50;12.17;;;10.93;;
9445;SDS011;4761;49.490;10.908;2024-03-02T01:01:17;12.40;;;10.90;;
9445;SDS011;4761;49.490;10.908;2024-03-02T01:03:44;12.07;;;10.60;;
9445;SDS011;4761;49.490;10.908;2024-03-02T01:06:10;12.07;;;10.80;;
9445;SDS011;4761;49.490;10.908;2024-03-02T01:08:36;12.07;;;10.80;;
9445;SDS011;4761;49.490;10.908;2024-03-02T01:11:02;11.83;;;10.43;;
9445;SDS011;4761;49.490;10.908;2024-03-02T01:13:28;11.90;;;10.60;;
9445;SDS011;4761;49.490;10.908;2024-03-02T01:15:54;11.77;;;10.27;;
9445;SDS011;4761;49.490;10.908;2024-03-02T01:18:20;12.23;;;10.80;;
9445;SDS011;4761;49.490;10.908;2024-03-02T01:20:47;11.30;;;10.10;;
9445;SDS011;4761;49.490;10.908;2024-03-02T01:23:13;11.00;;;9.80;;
9445;SDS011;4761;49.490;10.908;2024-03-02T01:25:39;12.17;;;10.93;;
9445;SDS011;4761;49.490;10.908;2024-03-02T01:28:05;12.23;;;10.93;;
9445;SDS011;4761;49.490;10.908;2024-03-02T01:30:30;11.57;;;10.37;;
9445;SDS011;4761;49.490;10.908;2024-03-02T01:32:56;11.57;;;10.30;;
9445;SDS011;4761;49.490;10.908;2024-03-02T01:35:23;12.17;;;10.40;;
9445;SDS011;4761;49.490;10.908;2024-03-02T01:37:49;12.60;;;10.83;;
9445;SDS011;4761;49.490;10.908;2024-03-02T01:40:15;12.33;;;10.63;;
9445;SDS011;4761;49.490;10.908;2024-03-02T01:42:40;11.63;;;10.43;;
9445;SDS011;4761;49.490;10.908;2024-03-02T01:45:06;12.23;;;10.37;;
9445;SDS011;4761;49.490;10.908;2024-03-02T01:47:33;12.07;;;10.77;;
9445;SDS011;4761;49.490;10.908;2024-03-02T01:49:59;12.40;;;10.93;;
9445;SDS011;4761;49.490;10.908;2024-03-02T01:52:25;11.47;;;10.13;;
9445;SDS011;4761;49.490;10.908;2024-03-02T01:54:51;11.63;;;10.43;;
9445;SDS011;4761;49.490;10.908;2024-03-02T01:57:17;12.07;;;10.77;;
9445;SDS011;4761;49.490;10.908;2024-03-02T01:59:43;11.80;;;10.60;;
9445;SDS011;4761;49.490;10.908;2024-03-02T02:02:09;12.03;;;10.83;;
9445;SDS011;4761;49.490;10.908;2024-03-02T02:04:34;11.07;;;9.87;;
9445;SDS011;4761;49.490;10.908;2024-03-02T02:07:00;11.13;;;9.93;;
9445;SDS011;4761;49.490;10.908;2024-03-02T02:09:26;11.93;;;10.73;;
9445;SDS011;4761;49.490;10.908;2024-03-02T02:11:51;11.50;;;10.30;;
9445;SDS011;4761;49.490;10.908;2024-03-02T02:14:17;11.63;;;10.23;;
9445;SDS011;4761;49.490;10.908;2024-03-02T02:16:43;11.97;;;9.67;;
9445;SDS011;4761;49.490;10.908;2024-03-02T02:19:09;11.07;;;9.90;;
9445;SDS011;4761;49.490;10.908;2024-03-02T02:21:35;10.90;;;9.80;;
9445;SDS011;4761;49.490;10.908;2024-03-02T02:24:00;10.27;;;9.27;;
9445;SDS011;4761;49.490;10.908;2024-03-02T02:26:28;11.13;;;9.97;;
9445;SDS011;4761;49.490;10.908;2024-03-02T02:28:54;10.73;;;9.63;;
9445;SDS011;4761;49.490;10.908;2024-03-02T02:31:19;10.90;;;9.80;;
9445;SDS011;4761;49.490;10.908;2024-03-02T02:33:45;11.67;;;9.80;;
9445;SDS011;4761;49.490;10.908;2024-03-02T02:36:10;9.87;;;8.87;;
9445;SDS011;4761;49.490;10.908;2024-03-02T02:38:38;11.10;;;10.00;;
9445;SDS011;4761;49.490;10.908;2024-03-02T02:41:06;10.53;;;9.43;;
9445;SDS011;4761;49.490;10.908;2024-03-02T02:43:32;10.10;;;9.10;;
9445;SDS011;4761;49.490;10.908;2024-03-02T02:45:58;11.27;;;9.53;;
9445;SDS011;4761;49.490;10.908;2024-03-02T02:48:23;9.97;;;8.97;;
9445;SDS011;4761;49.490;10.908;2024-03-02T02:50:49;10.10;;;9.03;;
9445;SDS011;4761;49.490;10.908;2024-03-02T02:53:14;10.07;;;9.07;;
9445;SDS011;4761;49.490;10.908;2024-03-02T02:55:40;10.50;;;9.40;;
9445;SDS011;4761;49.490;10.908;2024-03-02T02:58:06;11.60;;;9.43;;
9445;SDS011;4761;49.490;10.908;2024-03-02T03:00:31;10.97;;;9.50;;
9445;SDS011;4761;49.490;10.908;2024-03-02T03:02:57;10.20;;;9.20;;
9445;SDS011;4761;49.490;10.908;2024-03-02T03:05:23;10.50;;;9.40;;
9445;SDS011;4761;49.490;10.908;2024-03-02T03:07:48;10.47;;;9.17;;
9445;SDS011;4761;49.490;10.908;2024-03-02T03:10:15;9.80;;;8.80;;
9445;SDS011;4761;49.490;10.908;2024-03-02T03:12:41;9.53;;;8.53;;
9445;SDS011;4761;49.490;10.908;2024-03-02T03:15:08;10.37;;;8.50;;
9445;SDS011;4761;49.490;10.908;2024-03-02T03:17:34;9.93;;;8.90;;
9445;SDS011;4761;49.490;10.908;2024-03-02T03:20:00;10.13;;;9.13;;
9445;SDS011;4761;49.490;10.908;2024-03-02T03:22:28;9.50;;;8.50;;
9445;SDS011;4761;49.490;10.908;2024-03-02T03:24:53;9.53;;;8.60;;
9445;SDS011;4761;49.490;10.908;2024-03-02T03:27:19;10.17;;;9.07;;
9445;SDS011;4761;49.490;10.908;2024-03-02T03:29:47;9.93;;;8.93;;
9445;SDS011;4761;49.490;10.908;2024-03-02T03:32:12;10.00;;;8.97;;
9445;SDS011;4761;49.490;10.908;2024-03-02T03:34:38;9.80;;;8.80;;
9445;SDS011;4761;49.490;10.908;2024-03-02T03:37:05;9.33;;;8.33;;
9445;SDS011;4761;49.490;10.908;2024-03-02T03:39:30;11.10;;;8.90;;
9445;SDS011;4761;49.490;10.908;2024-03-02T03:41:56;9.60;;;8.57;;
9445;SDS011;4761;49.490;10.908;2024-03-02T03:44:21;10.30;;;8.70;;
9445;SDS011;4761;49.490;10.908;2024-03-02T03:46:47;8.07;;;7.27;;
9445;SDS011;4761;49.490;10.908;2024-03-02T03:49:12;9.60;;;8.53;;
9445;SDS011;4761;49.490;10.908;2024-03-02T03:51:38;8.67;;;7.87;;
9445;SDS011;4761;49.490;10.908;2024-03-02T03:54:04;8.93;;;7.70;;
9445;SDS011;4761;49.490;10.908;2024-03-02T03:56:29;8.80;;;7.90;;
9445;SDS011;4761;49.490;10.908;2024-03-02T03:58:55;9.60;;;8.37;;
9445;SDS011;4761;49.490;10.908;2024-03-02T04:01:20;8.87;;;7.97;;
9445;SDS011;4761;49.490;10.908;2024-03-02T04:03:47;9.53;;;8.53;;
9445;SDS011;4761;49.490;10.908;2024-03-02T04:06:13;9.63;;;8.50;;
9445;SDS011;4761;49.490;10.908;2024-03-02T04:08:39;9.90;;;8.30;;
9445;SDS011;4761;49.490;10.908;2024-03-02T04:11:06;8.43;;;7.63;;
9445;SDS011;4761;49.490;10.908;2024-03-02T04:13:32;9.23;;;7.73;;
9445;SDS011;4761;49.490;10.908;2024-03-02T04:15:58;10.00;;;8.33;;
9445;SDS011;4761;49.490;10.908;2024-03-02T04:18:23;8.97;;;8.07;;
9445;SDS011;4761;49.490;10.908;2024-03-02T04:20:49;9.70;;;8.70;;
9445;SDS011;4761;49.490;10.908;2024-03-02T04:23:14;8.00;;;7.20;;
9445;SDS011;4761;49.490;10.908;2024-03-02T04:25:40;9.30;;;7.90;;
9445;SDS011;4761;49.490;10.908;2024-03-02T04:28:05;8.70;;;7.77;;
9445;SDS011;4761;49.490;10.908;2024-03-02T04:30:31;8.23;;;6.90;;
9445;SDS011;4761;49.490;10.908;2024-03-02T04:32:57;7.87;;;6.80;;
9445;SDS011;4761;49.490;10.908;2024-03-02T04:35:22;8.37;;;7.57;;
9445;SDS011;4761;49.490;10.908;2024-03-02T04:37:48;7.70;;;6.97;;
9445;SDS011;4761;49.490;10.908;2024-03-02T04:40:14;8.03;;;7.17;;
9445;SDS011;4761;49.490;10.908;2024-03-02T04:42:39;8.40;;;7.13;;
9445;SDS011;4761;49.490;10.908;2024-03-02T04:45:05;8.03;;;7.03;;
9445;SDS011;4761;49.490;10.908;2024-03-02T04:47:31;7.67;;;6.90;;
9445;SDS011;4761;49.490;10.908;2024-03-02T04:49:57;8.10;;;6.90;;
9445;SDS011;4761;49.490;10.908;2024-03-02T04:52:22;8.17;;;7.33;;
9445;SDS011;4761;49.490;10.908;2024-03-02T04:54:48;7.97;;;6.93;;
9445;SDS011;4761;49.490;10.908;2024-03-02T04:57:32;8.10;;;7.30;;
9445;SDS011;4761;49.490;10.908;2024-03-02T04:59:57;7.37;;;6.67;;
9445;SDS011;4761;49.490;10.908;2024-03-02T05:02:23;8.67;;;6.37;;
9445;SDS011;4761;49.490;10.908;2024-03-02T05:04:48;7.40;;;6.70;;
9445;SDS011;4761;49.490;10.908;2024-03-02T05:07:14;7.50;;;6.77;;
9445;SDS011;4761;49.490;10.908;2024-03-02T05:09:40;7.17;;;6.47;;
9445;SDS011;4761;49.490;10.908;2024-03-02T05:12:05;7.50;;;6.73;;
9445;SDS011;4761;49.490;10.908;2024-03-02T05:14:37;7.07;;;6.37;;
9445;SDS011;4761;49.490;10.908;2024-03-02T05:17:03;7.37;;;6.67;;
9445;SDS011;4761;49.490;10.908;2024-03-02T05:19:29;7.47;;;6.68;;
9445;SDS011;4761;49.490;10.908;2024-03-02T05:21:54;6.90;;;6.20;;
9445;SDS011;4761;49.490;10.908;2024-03-02T05:24:20;6.90;;;6.20;;
9445;SDS011;4761;49.490;10.908;2024-03-02T05:26:45;7.57;;;6.70;;
9445;SDS011;4761;49.490;10.908;2024-03-02T05:29:11;7.97;;;7.17;;
9445;SDS011;4761;49.490;10.908;2024-03-02T05:31:37;7.37;;;6.63;;
9445;SDS011;4761;49.490;10.908;2024-03-02T05:34:02;7.20;;;6.50;;
9445;SDS011;4761;49.490;10.908;2024-03-02T05:36:28;6.90;;;6.30;;
9445;SDS011;4761;49.490;10.908;2024-03-02T05:38:54;7.33;;;6.50;;
9445;SDS011;4761;49.490;10.908;2024-03-02T05:41:19;7.43;;;6.30;;
9445;SDS011;4761;49.490;10.908;2024-03-02T05:43:45;7.17;;;6.23;;
9445;SDS011;4761;49.490;10.908;2024-03-02T05:46:11;7.33;;;6.63;;
9445;SDS011;4761;49.490;10.908;2024-03-02T05:48:36;6.80;;;6.10;;
9445;SDS011;4761;49.490;10.908;2024-03-02T05:51:02;6.60;;;6.00;;
9445;SDS011;4761;49.490;10.908;2024-03-02T05:53:28;6.73;;;6.03;;
9445;SDS011;4761;49.490;10.908;2024-03-02T05:55:53;7.37;;;5.83;;
9445;SDS011;4761;49.490;10.908;2024-03-02T05:58:20;6.60;;;5.90;;
9445;SDS011;4761;49.490;10.908;2024-03-02T06:01:13;6.17;;;5.57;;
9445;SDS011;4761;49.490;10.908;2024-03-02T06:03:38;6.20;;;5.60;;
9445;SDS011;4761;49.490;10.908;2024-03-02T06:06:04;6.20;;;5.60;;
9445;SDS011;4761;49.490;10.908;2024-03-02T06:08:30;5.60;;;5.07;;
9445;SDS011;4761;49.490;10.908;2024-03-02T06:10:56;5.87;;;5.30;;
9445;SDS011;4761;49.490;10.908;2024-03-02T06:13:22;5.93;;;5.33;;
9445;SDS011;4761;49.490;10.908;2024-03-02T06:15:48;6.20;;;5.60;;
9445;SDS011;4761;49.490;10.908;2024-03-02T06:18:13;5.73;;;5.13;;
9445;SDS011;4761;49.490;10.908;2024-03-02T06:20:39;6.27;;;5.53;;
9445;SDS011;4761;49.490;10.908;2024-03-02T06:23:04;5.63;;;5.13;;
9445;SDS011;4761;49.490;10.908;2024-03-02T06:25:30;5.77;;;5.17;;
9445;SDS011;4761;49.490;10.908;2024-03-02T06:27:56;5.63;;;5.13;;
9445;SDS011;4761;49.490;10.908;2024-03-02T06:30:21;5.90;;;5.40;;
9445;SDS011;4761;49.490;10.908;2024-03-02T06:32:47;6.10;;;5.50;;
9445;SDS011;4761;49.490;10.908;2024-03-02T06:35:12;5.80;;;5.20;;
9445;SDS011;4761;49.490;10.908;2024-03-02T06:37:38;5.13;;;4.63;;
9445;SDS011;4761;49.490;10.908;2024-03-02T06:40:07;6.07;;;5.47;;
9445;SDS011;4761;49.490;10.908;2024-03-02T06:42:33;5.57;;;5.07;;
9445;SDS011;4761;49.490;10.908;2024-03-02T06:44:59;5.77;;;5.27;;
9445;SDS011;4761;49.490;10.908;2024-03-02T06:47:25;6.13;;;5.53;;
9445;SDS011;4761;49.490;10.908;2024-03-02T06:49:51;6.90;;;5.20;;
9445;SDS011;4761;49.490;10.908;2024-03-02T06:52:17;8.10;;;5.10;;
9445;SDS011;4761;49.490;10.908;2024-03-02T06:54:43;6.00;;;5.40;;
9445;SDS011;4761;49.490;10.908;2024-03-02T06:57:09;5.47;;;4.97;;
9445;SDS011;4761;49.490;10.908;2024-03-02T06:59:35;5.90;;;4.90;;
9445;SDS011;4761;49.490;10.908;2024-03-02T07:02:00;5.83;;;5.30;;
9445;SDS011;4761;49.490;10.908;2024-03-02T07:04:26;5.40;;;4.90;;
9445;SDS011;4761;49.490;10.908;2024-03-02T07:06:52;5.30;;;4.80;;
9445;SDS011;4761;49.490;10.908;2024-03-02T07:09:17;5.80;;;5.20;;
9445;SDS011;4761;49.490;10.908;2024-03-02T07:11:43;5.63;;;5.13;;
9445;SDS011;4761;49.490;10.908;2024-03-02T07:14:08;4.87;;;4.47;;
9445;SDS011;4761;49.490;10.908;2024-03-02T07:16:36;6.03;;;5.13;;
9445;SDS011;4761;49.490;10.908;2024-03-02T07:19:03;5.67;;;5.03;;
9445;SDS011;4761;49.490;10.908;2024-03-02T07:21:29;6.60;;;5.43;;
9445;SDS011;4761;49.490;10.908;2024-03-02T07:23:54;7.03;;;6.10;;
9445;SDS011;4761;49.490;10.908;2024-03-02T07:26:20;8.30;;;6.43;;
9445;SDS011;4761;49.490;10.908;2024-03-02T07:28:46;6.82;;;5.72;;
9445;SDS011;4761;49.490;10.908;2024-03-02T07:31:13;8.30;;;6.27;;
9445;SDS011;4761;49.490;10.908;2024-03-02T07:33:38;7.47;;;6.10;;
9445;SDS011;4761;49.490;10.908;2024-03-02T07:36:04;6.60;;;5.50;;
9445;SDS011;4761;49.490;10.908;2024-03-02T07:38:30;6.03;;;5.43;;
9445;SDS011;4761;49.490;10.908;2024-03-02T07:40:56;7.13;;;5.50;;
9445;SDS011;4761;49.490;10.908;2024-03-02T07:43:22;7.10;;;5.67;;
9445;SDS011;4761;49.490;10.908;2024-03-02T07:45:48;6.20;;;5.13;;
9445;SDS011;4761;49.490;10.908;2024-03-02T07:48:17;5.70;;;5.10;;
9445;SDS011;4761;49.490;10.908;2024-03-02T07:50:42;6.10;;;5.20;;
9445;SDS011;4761;49.490;10.908;2024-03-02T07:53:08;5.90;;;5.27;;
9445;SDS011;4761;49.490;10.908;2024-03-02T07:55:34;6.20;;;5.23;;
9445;SDS011;4761;49.490;10.908;2024-03-02T07:58:00;5.30;;;4.80;;
9445;SDS011;4761;49.490;10.908;2024-03-02T08:00:26;6.13;;;5.53;;
9445;SDS011;4761;49.490;10.908;2024-03-02T08:02:52;5.40;;;4.90;;
9445;SDS011;4761;49.490;10.908;2024-03-02T08:05:18;6.07;;;5.03;;
9445;SDS011;4761;49.490;10.908;2024-03-02T08:07:44;5.67;;;4.97;;
9445;SDS011;4761;49.490;10.908;2024-03-02T08:10:10;5.47;;;4.70;;
9445;SDS011;4761;49.490;10.908;2024-03-02T08:12:36;5.23;;;4.60;;
9445;SDS011;4761;49.490;10.908;2024-03-02T08:15:01;4.97;;;4.50;;
9445;SDS011;4761;49.490;10.908;2024-03-02T08:17:27;5.60;;;5.00;;
9445;SDS011;4761;49.490;10.908;2024-03-02T08:19:53;5.67;;;4.93;;
9445;SDS011;4761;49.490;10.908;2024-03-02T08:22:19;5.43;;;4.73;;
9445;SDS011;4761;49.490;10.908;2024-03-02T08:24:44;5.53;;;4.63;;
9445;SDS011;4761;49.490;10.908;2024-03-02T08:27:10;5.07;;;4.57;;
9445;SDS011;4761;49.490;10.908;2024-03-02T08:29:37;5.93;;;5.33;;
9445;SDS011;4761;49.490;10.908;2024-03-02T08:32:02;5.20;;;4.70;;
9445;SDS011;4761;49.490;10.908;2024-03-02T08:34:28;5.87;;;5.10;;
9445;SDS011;4761;49.490;10.908;2024-03-02T08:36:54;4.87;;;4.37;;
9445;SDS011;4761;49.490;10.908;2024-03-02T08:39:19;5.50;;;4.80;;
9445;SDS011;4761;49.490;10.908;2024-03-02T08:41:45;5.87;;;4.57;;
9445;SDS011;4761;49.490;10.908;2024-03-02T08:44:12;5.00;;;4.50;;
9445;SDS011;4761;49.490;10.908;2024-03-02T08:46:39;5.50;;;5.00;;
9445;SDS011;4761;49.490;10.908;2024-03-02T08:49:05;5.20;;;4.70;;
9445;SDS011;4761;49.490;10.908;2024-03-02T08:51:31;4.90;;;4.43;;
9445;SDS011;4761;49.490;10.908;2024-03-02T08:53:57;5.63;;;5.07;;
9445;SDS011;4761;49.490;10.908;2024-03-02T08:56:23;4.50;;;4.10;;
9445;SDS011;4761;49.490;10.908;2024-03-02T08:58:49;4.40;;;4.00;;
9445;SDS011;4761;49.490;10.908;2024-03-02T09:01:15;4.67;;;4.27;;
9445;SDS011;4761;49.490;10.908;2024-03-02T09:03:42;4.87;;;4.47;;
9445;SDS011;4761;49.490;10.908;2024-03-02T09:06:11;4.73;;;4.30;;
9445;SDS011;4761;49.490;10.908;2024-03-02T09:08:37;4.40;;;4.00;;
9445;SDS011;4761;49.490;10.908;2024-03-02T09:11:04;4.67;;;4.27;;
9445;SDS011;4761;49.490;10.908;2024-03-02T09:13:31;4.20;;;3.80;;
9445;SDS011;4761;49.490;10.908;2024-03-02T09:15:57;4.40;;;4.00;;
9445;SDS011;4761;49.490;10.908;2024-03-02T09:18:22;4.63;;;4.20;;
9445;SDS011;4761;49.490;10.908;2024-03-02T09:20:48;4.20;;;3.80;;
9445;SDS011;4761;49.490;10.908;2024-03-02T09:23:14;4.53;;;4.13;;
9445;SDS011;4761;49.490;10.908;2024-03-02T09:25:39;4.37;;;3.97;;
9445;SDS011;4761;49.490;10.908;2024-03-02T09:28:05;4.23;;;3.83;;
9445;SDS011;4761;49.490;10.908;2024-03-02T09:30:32;4.30;;;3.90;;
9445;SDS011;4761;49.490;10.908;2024-03-02T09:32:57;4.27;;;3.87;;
9445;SDS011;4761;49.490;10.908;2024-03-02T09:35:23;5.37;;;4.00;;
9445;SDS011;4761;49.490;10.908;2024-03-02T09:37:48;4.57;;;4.10;;
9445;SDS011;4761;49.490;10.908;2024-03-02T09:40:14;5.10;;;4.60;;
9445;SDS011;4761;49.490;10.908;2024-03-02T09:42:41;4.67;;;4.20;;
9445;SDS011;4761;49.490;10.908;2024-03-02T09:45:07;4.63;;;4.23;;
9445;SDS011;4761;49.490;10.908;2024-03-02T09:47:33;5.13;;;4.63;;
9445;SDS011;4761;49.490;10.908;2024-03-02T09:49:59;5.20;;;4.43;;
9445;SDS011;4761;49.490;10.908;2024-03-02T09:52:24;4.43;;;4.00;;
9445;SDS011;4761;49.490;10.908;2024-03-02T09:54:51;5.60;;;4.40;;
9445;SDS011;4761;49.490;10.908;2024-03-02T09:57:16;5.13;;;4.00;;
9445;SDS011;4761;49.490;10.908;2024-03-02T09:59:42;4.40;;;4.00;;
9445;SDS011;4761;49.490;10.908;2024-03-02T10:02:07;4.43;;;4.00;;
9445;SDS011;4761;49.490;10.908;2024-03-02T10:04:33;4.17;;;3.77;;
9445;SDS011;4761;49.490;10.908;2024-03-02T10:07:15;5.57;;;4.20;;
9445;SDS011;4761;49.490;10.908;2024-03-02T10:09:42;5.07;;;4.40;;
9445;SDS011;4761;49.490;10.908;2024-03-02T10:12:08;4.57;;;3.93;;
9445;SDS011;4761;49.490;10.908;2024-03-02T10:14:36;5.00;;;4.50;;
9445;SDS011;4761;49.490;10.908;2024-03-02T10:17:09;4.80;;;3.77;;
9445;SDS011;4761;49.490;10.908;2024-03-02T10:19:36;4.00;;;3.70;;
9445;SDS011;4761;49.490;10.908;2024-03-02T10:22:03;4.43;;;3.80;;
9445;SDS011;4761;49.490;10.908;2024-03-02T10:27:26;5.00;;;4.27;;
9445;SDS011;4761;49.490;10.908;2024-03-02T10:29:52;5.77;;;3.80;;
9445;SDS011;4761;49.490;10.908;2024-03-02T10:32:18;4.43;;;4.00;;
9445;SDS011;4761;49.490;10.908;2024-03-02T10:34:47;5.57;;;3.90;;
9445;SDS011;4761;49.490;10.908;2024-03-02T10:37:15;4.87;;;3.47;;
9445;SDS011;4761;49.490;10.908;2024-03-02T10:39:42;4.83;;;3.90;;
9445;SDS011;4761;49.490;10.908;2024-03-02T10:42:07;3.77;;;3.47;;
9445;SDS011;4761;49.490;10.908;2024-03-02T10:44:34;5.87;;;3.77;;
9445;SDS011;4761;49.490;10.908;2024-03-02T10:47:00;4.37;;;3.60;;
9445;SDS011;4761;49.490;10.908;2024-03-02T10:49:30;4.33;;;3.93;;
9445;SDS011;4761;49.490;10.908;2024-03-02T10:51:57;4.70;;;3.90;;
9445;SDS011;4761;49.490;10.908;2024-03-02T10:54:23;8.23;;;3.60;;
9445;SDS011;4761;49.490;10.908;2024-03-02T10:56:52;4.00;;;3.60;;
9445;SDS011;4761;49.490;10.908;2024-03-02T10:59:24;4.23;;;3.47;;
9445;SDS011;4761;49.490;10.908;2024-03-02T11:01:56;3.80;;;3.40;;
9445;SDS011;4761;49.490;10.908;2024-03-02T11:04:24;3.53;;;3.23;;
9445;SDS011;4761;49.490;10.908;2024-03-02T11:06:51;4.43;;;3.57;;
9445;SDS011;4761;49.490;10.908;2024-03-02T11:09:21;4.53;;;3.67;;
9445;SDS011;4761;49.490;10.908;2024-03-02T11:11:56;3.87;;;3.47;;
9445;SDS011;4761;49.490;10.908;2024-03-02T11:14:31;3.17;;;2.87;;
9445;SDS011;4761;49.490;10.908;2024-03-02T11:16:58;4.20;;;3.17;;
9445;SDS011;4761;49.490;10.908;2024-03-02T11:19:26;3.40;;;3.10;;
9445;SDS011;4761;49.490;10.908;2024-03-02T11:21:52;3.40;;;3.10;;
9445;SDS011;4761;49.490;10.908;2024-03-02T11:26:50;3.87;;;3.10;;
9445;SDS011;4761;49.490;10.908;2024-03-02T11:32:01;3.30;;;3.00;;
9445;SDS011;4761;49.490;10.908;2024-03-02T11:34:33;3.60;;;3.27;;
9445;SDS011;4761;49.490;10.908;2024-03-02T11:37:03;3.17;;;2.87;;
9445;SDS011;4761;49.490;10.908;2024-03-02T11:39:29;2.80;;;2.60;;
9445;SDS011;4761;49.490;10.908;2024-03-02T11:41:55;2.60;;;2.40;;
9445;SDS011;4761;49.490;10.908;2024-03-02T11:44:25;3.20;;;2.90;;
9445;SDS011;4761;49.490;10.908;2024-03-02T11:47:06;2.90;;;2.70;;
9445;SDS011;4761;49.490;10.908;2024-03-02T11:49:39;3.43;;;2.57;;
9445;SDS011;4761;49.490;10.908;2024-03-02T11:52:13;2.97;;;2.67;;
9445;SDS011;4761;49.490;10.908;2024-03-02T11:54:40;3.53;;;2.40;;
9445;SDS011;4761;49.490;10.908;2024-03-02T11:57:17;2.60;;;2.40;;
9445;SDS011;4761;49.490;10.908;2024-03-02T11:59:47;3.03;;;2.73;;
9445;SDS011;4761;49.490;10.908;2024-03-02T12:02:18;3.13;;;2.60;;
9445;SDS011;4761;49.490;10.908;2024-03-02T12:04:44;4.40;;;3.03;;
9445;SDS011;4761;49.490;10.908;2024-03-02T12:07:12;4.00;;;2.80;;
9445;SDS011;4761;49.490;10.908;2024-03-02T12:09:47;3.37;;;3.00;;
9445;SDS011;4761;49.490;10.908;2024-03-02T12:12:13;3.03;;;2.70;;
9445;SDS011;4761;49.490;10.908;2024-03-02T12:14:49;3.60;;;2.90;;
9445;SDS011;4761;49.490;10.908;2024-03-02T12:17:16;3.03;;;2.73;;
9445;SDS011;4761;49.490;10.908;2024-03-02T12:19:42;3.30;;;2.70;;
9445;SDS011;4761;49.490;10.908;2024-03-02T12:22:07;3.50;;;3.17;;
9445;SDS011;4761;49.490;10.908;2024-03-02T12:24:33;3.13;;;2.83;;
9445;SDS011;4761;49.490;10.908;2024-03-02T12:26:59;4.27;;;3.10;;
9445;SDS011;4761;49.490;10.908;2024-03-02T12:29:25;3.37;;;2.83;;
9445;SDS011;4761;49.490;10.908;2024-03-02T12:31:52;3.70;;;3.00;;
9445;SDS011;4761;49.490;10.908;2024-03-02T12:34:18;3.20;;;2.90;;
9445;SDS011;4761;49.490;10.908;2024-03-02T12:36:45;3.28;;;2.97;;
9445;SDS011;4761;49.490;10.908;2024-03-02T12:39:14;3.30;;;3.00;;
9445;SDS011;4761;49.490;10.908;2024-03-02T12:41:43;3.10;;;2.73;;
9445;SDS011;4761;49.490;10.908;2024-03-02T12:44:09;3.00;;;2.77;;
9445;SDS011;4761;49.490;10.908;2024-03-02T12:46:34;3.07;;;2.77;;
9445;SDS011;4761;49.490;10.908;2024-03-02T12:49:09;3.37;;;3.00;;
9445;SDS011;4761;49.490;10.908;2024-03-02T12:51:39;2.93;;;2.73;;
9445;SDS011;4761;49.490;10.908;2024-03-02T12:54:06;3.43;;;3.13;;
9445;SDS011;4761;49.490;10.908;2024-03-02T12:56:33;4.00;;;2.97;;
9445;SDS011;4761;49.490;10.908;2024-03-02T12:58:59;5.07;;;3.37;;
9445;SDS011;4761;49.490;10.908;2024-03-02T13:01:24;3.77;;;3.10;;
9445;SDS011;4761;49.490;10.908;2024-03-02T13:03:50;3.50;;;3.20;;
9445;SDS011;4761;49.490;10.908;2024-03-02T13:06:17;3.57;;;3.27;;
9445;SDS011;4761;49.490;10.908;2024-03-02T13:08:45;4.20;;;3.80;;
9445;SDS011;4761;49.490;10.908;2024-03-02T13:11:11;4.57;;;3.70;;
9445;SDS011;4761;49.490;10.908;2024-03-02T13:13:38;4.80;;;4.30;;
9445;SDS011;4761;49.490;10.908;2024-03-02T13:16:07;4.53;;;4.03;;
9445;SDS011;4761;49.490;10.908;2024-03-02T13:18:36;5.87;;;5.03;;
9445;SDS011;4761;49.490;10.908;2024-03-02T13:21:03;5.73;;;5.17;;
9445;SDS011;4761;49.490;10.908;2024-03-02T13:23:29;5.93;;;5.33;;
9445;SDS011;4761;49.490;10.908;2024-03-02T13:25:56;13.23;;;5.70;;
9445;SDS011;4761;49.490;10.908;2024-03-02T13:28:23;12.10;;;5.40;;
9445;SDS011;4761;49.490;10.908;2024-03-02T13:30:49;12.10;;;5.33;;
9445;SDS011;4761;49.490;10.908;2024-03-02T13:33:14;8.47;;;4.93;;
9445;SDS011;4761;49.490;10.908;2024-03-02T13:35:40;9.20;;;5.90;;
9445;SDS011;4761;49.490;10.908;2024-03-02T13:38:05;8.23;;;5.60;;
9445;SDS011;4761;49.490;10.908;2024-03-02T13:40:31;9.20;;;5.60;;
9445;SDS011;4761;49.490;10.908;2024-03-02T13:43:00;9.17;;;5.77;;
9445;SDS011;4761;49.490;10.908;2024-03-02T13:45:26;6.70;;;5.20;;
9445;SDS011;4761;49.490;10.908;2024-03-02T13:47:52;8.20;;;6.17;;
9445;SDS011;4761;49.490;10.908;2024-03-02T13:50:18;11.10;;;5.50;;
9445;SDS011;4761;49.490;10.908;2024-03-02T13:52:44;9.70;;;5.87;;
9445;SDS011;4761;49.490;10.908;2024-03-02T13:55:10;7.73;;;5.63;;
9445;SDS011;4761;49.490;10.908;2024-03-02T13:57:36;10.00;;;5.83;;
9445;SDS011;4761;49.490;10.908;2024-03-02T14:00:01;6.00;;;5.13;;
9445;SDS011;4761;49.490;10.908;2024-03-02T14:02:28;7.07;;;5.10;;
9445;SDS011;4761;49.490;10.908;2024-03-02T14:04:54;6.70;;;5.37;;
9445;SDS011;4761;49.490;10.908;2024-03-02T14:07:19;6.10;;;4.97;;
9445;SDS011;4761;49.490;10.908;2024-03-02T14:09:45;5.73;;;5.00;;
9445;SDS011;4761;49.490;10.908;2024-03-02T14:12:11;6.23;;;4.90;;
9445;SDS011;4761;49.490;10.908;2024-03-02T14:14:38;5.17;;;4.67;;
9445;SDS011;4761;49.490;10.908;2024-03-02T14:17:04;7.47;;;4.83;;
9445;SDS011;4761;49.490;10.908;2024-03-02T14:19:31;5.97;;;4.90;;
9445;SDS011;4761;49.490;10.908;2024-03-02T14:21:57;4.67;;;4.27;;
9445;SDS011;4761;49.490;10.908;2024-03-02T14:24:23;5.07;;;4.57;;
9445;SDS011;4761;49.490;10.908;2024-03-02T14:26:53;4.60;;;4.20;;
9445;SDS011;4761;49.490;10.908;2024-03-02T14:29:18;4.83;;;4.37;;
9445;SDS011;4761;49.490;10.908;2024-03-02T14:31:44;4.70;;;4.20;;
9445;SDS011;4761;49.490;10.908;2024-03-02T14:34:13;4.97;;;4.40;;
9445;SDS011;4761;49.490;10.908;2024-03-02T14:36:41;4.63;;;4.00;;
9445;SDS011;4761;49.490;10.908;2024-03-02T14:39:09;5.20;;;4.20;;
9445;SDS011;4761;49.490;10.908;2024-03-02T14:41:35;6.63;;;4.80;;
9445;SDS011;4761;49.490;10.908;2024-03-02T14:44:01;4.77;;;4.30;;
9445;SDS011;4761;49.490;10.908;2024-03-02T14:46:27;5.80;;;4.47;;
9445;SDS011;4761;49.490;10.908;2024-03-02T14:48:53;4.57;;;3.90;;
9445;SDS011;4761;49.490;10.908;2024-03-02T14:51:18;4.43;;;4.03;;
9445;SDS011;4761;49.490;10.908;2024-03-02T14:53:44;7.20;;;4.50;;
9445;SDS011;4761;49.490;10.908;2024-03-02T14:56:09;5.43;;;4.17;;
9445;SDS011;4761;49.490;10.908;2024-03-02T14:58:35;4.87;;;4.37;;
9445;SDS011;4761;49.490;10.908;2024-03-02T15:01:01;5.17;;;4.40;;
9445;SDS011;4761;49.490;10.908;2024-03-02T15:03:28;5.10;;;4.43;;
9445;SDS011;4761;49.490;10.908;2024-03-02T15:05:53;5.07;;;4.20;;
9445;SDS011;4761;49.490;10.908;2024-03-02T15:08:19;4.73;;;4.20;;